Accueil
METAR-TAF:

METAR-TAF

Aéroports :

Army Air Corps Middle Wallop

Middle Wallop, Angleterre

latitude: 51-09N, longitude: 001-34W, altitude: 91 m

Observation

Le bulletin a été fait il y a 1 heure et 13 minutes, à 01:50 UTC
Vent 4 kt de ouest/nord-ouest
Température 11°C
Humidité 94%
Pression 1018 hPa
Visibilité 10 km ou plus

METAR: EGVP 170150Z AUTO 29004KT 9999 // NCD 11/10 Q1018

Heure: 04:03 (03:03 UTC)

Prévision

Le bulletin a été fait il y a 13 heures et 44 minutes, à 13:19 UTC
Prévision valable du 16 à 15 UTC au 16 à 19 UTC
Vent 10 kt de ouest
Visibilité 10 km ou plus
Quelques nuages à une hauteur de 2500 ft

TAF: EGVP 161319Z 1615/1619 27010KT 9999 FEW025

Observations et prévisions météorologiques de plus de 4000 aéroports (messages METAR et TAF).

Les stations disponibles sont représentées par des disques jaunes et rouges sur la carte.

Passer la souris dessus pour voir le nom de la station.

Cliquer dessus pour voir les observations et prévisions météorologiques.

Pour changer de carte: cliquez sur les boutons verts avec une croix noire pour zoomer, sur le bouton vert avec un tiret pour effectuer un zoom arrière, ou sur les flèches vertes pour les cartes adjacentes.


METAR-TAF: